Port Clinton, Ohio
Current Conditions -  °F | °C
As of 10:53 PM on Saturday 25 Oct 2014 (Local Time) from KPCW Reporting Station
Clear Clear  
Wind Chill: 59°   Ceiling: Unl
Heat Index: 59°   Visibility: 10mi
Dew Point: 38°   Wind: 10mph
Humidity: 46%   Direction: 280°W
Pressure: 29.83"   Gusts: NA
Location:  41.51°N, 82.94°W
Report Text: KPCW 260253Z AUTO 28009KT 10SM CLR 15/03 A2983 RMK AO2 51014 T01500033 $
Loading
Personal Weather Stations






























Interactive Weather Map
Tropical Storm Tracking
New forecast layout! Learn more

10-Day Weather Forecast

Advertisements
Track Severe Weather on mobile